createdAt,value
2023-03-19T00:00:40.135Z,12.88
2023-03-19T00:03:07.303Z,7.43
2023-03-19T00:05:34.623Z,5.45
2023-03-19T00:08:01.905Z,5.90
2023-03-19T00:10:28.976Z,4.20
2023-03-19T00:12:56.836Z,5.18
2023-03-19T00:15:24.004Z,3.72
2023-03-19T00:17:51.828Z,5.90
2023-03-19T00:20:20.492Z,2.67
2023-03-19T00:22:47.704Z,5.65
2023-03-19T00:25:15.258Z,4.93
2023-03-19T00:27:43.035Z,7.05
2023-03-19T00:30:11.488Z,14.57
2023-03-19T00:32:39.680Z,9.82
2023-03-19T00:35:08.488Z,4.38
2023-03-19T00:37:36.510Z,3.90
2023-03-19T00:40:12.861Z,2.53
2023-03-19T00:42:39.920Z,10.20
2023-03-19T00:45:07.706Z,2.33
2023-03-19T00:47:35.153Z,5.90
2023-03-19T00:50:03.021Z,11.30
2023-03-19T00:52:30.506Z,8.77
2023-03-19T00:54:57.545Z,8.88
2023-03-19T00:57:24.734Z,20.38
2023-03-19T00:59:51.936Z,6.82
2023-03-19T01:02:18.961Z,16.73
2023-03-19T01:04:49.294Z,12.25
2023-03-19T01:07:16.519Z,19.95
2023-03-19T01:09:43.698Z,3.25
2023-03-19T01:12:11.059Z,24.75
2023-03-19T01:14:38.093Z,38.60
2023-03-19T01:17:05.543Z,2.97
2023-03-19T01:19:33.109Z,10.25
2023-03-19T01:22:00.269Z,6.78
2023-03-19T01:24:32.082Z,3.78
2023-03-19T01:26:59.169Z,14.85
2023-03-19T01:29:34.083Z,4.00
2023-03-19T01:32:09.903Z,5.03
2023-03-19T01:35:09.810Z,7.32
2023-03-19T01:37:37.621Z,3.53
2023-03-19T01:40:06.140Z,2.25
2023-03-19T01:42:34.066Z,4.65
2023-03-19T01:45:36.377Z,1.25
2023-03-19T01:48:48.622Z,14.60
2023-03-19T01:51:23.496Z,13.43
2023-03-19T01:54:12.420Z,5.65
2023-03-19T01:57:10.894Z,8.15
2023-03-19T02:00:02.046Z,20.60
2023-03-19T02:02:47.701Z,6.53
2023-03-19T02:05:45.674Z,24.90
2023-03-19T02:08:16.773Z,14.60
2023-03-19T02:10:47.806Z,1.83
2023-03-19T02:13:15.917Z,1.60
2023-03-19T02:15:43.443Z,8.40
2023-03-19T02:18:10.972Z,6.07
2023-03-19T02:24:02.678Z,1.35
2023-03-19T02:26:52.536Z,1.08
2023-03-19T02:29:19.691Z,2.53
2023-03-19T02:31:47.443Z,3.38
2023-03-19T02:34:14.525Z,12.50
2023-03-19T02:36:48.468Z,15.25
2023-03-19T02:39:27.640Z,1.45
2023-03-19T02:41:56.585Z,1.30
2023-03-19T02:44:26.660Z,7.45
2023-03-19T02:46:53.895Z,5.93
2023-03-19T02:49:21.015Z,5.97
2023-03-19T02:51:49.453Z,1.38
2023-03-19T02:54:16.643Z,5.03
2023-03-19T02:56:43.837Z,3.17
2023-03-19T02:59:10.961Z,15.25
2023-03-19T03:01:38.260Z,3.75
2023-03-19T03:04:06.002Z,1.67
2023-03-19T03:06:33.149Z,1.52
2023-03-19T03:09:02.334Z,1.35
2023-03-19T03:11:29.505Z,1.40
2023-03-19T03:13:56.576Z,1.10
2023-03-19T03:16:24.359Z,0.88
2023-03-19T03:18:51.535Z,1.30
2023-03-19T03:21:21.548Z,13.95
2023-03-19T03:23:48.958Z,3.05
2023-03-19T03:26:15.998Z,9.20
2023-03-19T03:28:43.577Z,3.00
2023-03-19T03:31:10.684Z,6.05
2023-03-19T03:33:39.866Z,3.17
2023-03-19T03:36:07.328Z,0.90
2023-03-19T03:38:34.830Z,1.70
2023-03-19T03:41:01.812Z,0.93
2023-03-19T03:43:29.108Z,4.07
2023-03-19T03:45:56.160Z,1.15
2023-03-19T03:48:23.870Z,1.20
2023-03-19T03:50:51.790Z,3.72
2023-03-19T03:53:23.541Z,1.30
2023-03-19T03:55:51.354Z,9.50
2023-03-19T03:58:21.649Z,1.58
2023-03-19T04:00:48.682Z,2.28
2023-03-19T04:03:15.994Z,7.07
2023-03-19T04:05:44.798Z,1.70
2023-03-19T04:08:12.357Z,11.77
2023-03-19T04:10:42.518Z,0.80
2023-03-19T04:13:10.349Z,1.58
2023-03-19T04:15:38.776Z,1.02
2023-03-19T04:18:06.495Z,13.20
2023-03-19T04:20:33.714Z,28.88
2023-03-19T04:23:02.224Z,4.60
2023-03-19T04:25:30.014Z,11.38
2023-03-19T04:27:58.301Z,5.35
2023-03-19T04:30:27.898Z,1.40
2023-03-19T04:32:55.545Z,9.48
2023-03-19T04:35:23.183Z,1.67
2023-03-19T04:37:50.181Z,0.65
2023-03-19T04:40:19.492Z,1.27
2023-03-19T04:42:47.637Z,3.22
2023-03-19T04:45:26.509Z,37.17
2023-03-19T04:47:54.126Z,23.38
2023-03-19T04:50:21.307Z,1.10
2023-03-19T04:52:48.459Z,9.52
2023-03-19T04:55:16.079Z,51.45
2023-03-19T04:57:50.956Z,28.25
2023-03-19T05:00:20.691Z,12.48
2023-03-19T05:02:48.594Z,23.48
2023-03-19T05:05:16.157Z,4.53
2023-03-19T05:07:44.446Z,2.85
2023-03-19T05:10:12.265Z,20.17
2023-03-19T05:12:40.041Z,15.63
2023-03-19T05:15:08.463Z,1.15
2023-03-19T05:17:39.046Z,1.05
2023-03-19T05:20:28.644Z,3.47
2023-03-19T05:23:01.865Z,9.18
2023-03-19T05:25:54.962Z,10.57
2023-03-19T05:28:40.221Z,9.70
2023-03-19T05:31:07.322Z,0.98
2023-03-19T05:33:42.045Z,21.50
2023-03-19T05:36:09.791Z,29.23
2023-03-19T05:38:49.352Z,9.00
2023-03-19T05:41:23.939Z,4.93
2023-03-19T05:43:59.357Z,2.63
2023-03-19T05:46:55.987Z,0.80
2023-03-19T05:49:26.083Z,16.88
2023-03-19T05:51:53.149Z,17.13
2023-03-19T05:54:20.922Z,1.10
2023-03-19T05:56:57.498Z,6.72
2023-03-19T05:59:44.242Z,22.65
2023-03-19T06:02:44.811Z,5.68
2023-03-19T06:05:27.270Z,17.25
2023-03-19T06:07:58.506Z,9.30
2023-03-19T06:10:48.755Z,2.53
2023-03-19T06:13:16.068Z,78.20
2023-03-19T06:15:50.525Z,2.78
2023-03-19T06:18:36.752Z,50.25
2023-03-19T06:21:14.199Z,29.33
2023-03-19T06:23:41.363Z,13.80
2023-03-19T06:26:10.861Z,19.50
2023-03-19T06:28:47.399Z,25.73
2023-03-19T06:31:15.936Z,8.98
2023-03-19T06:34:02.279Z,5.30
2023-03-19T06:36:38.209Z,0.65
2023-03-19T06:39:05.684Z,40.05
2023-03-19T06:41:32.739Z,0.65
2023-03-19T06:44:11.519Z,8.23
2023-03-19T06:46:38.944Z,8.38
2023-03-19T06:49:07.187Z,0.55
2023-03-19T06:51:34.499Z,0.50
2023-03-19T06:54:01.650Z,8.55
2023-03-19T06:56:29.755Z,1.73
2023-03-19T06:58:56.749Z,8.10
2023-03-19T07:01:24.102Z,6.18
2023-03-19T07:03:51.490Z,2.97
2023-03-19T07:06:18.626Z,0.50
2023-03-19T07:08:46.654Z,0.70
2023-03-19T07:11:15.158Z,0.52
2023-03-19T07:13:42.528Z,4.38
2023-03-19T07:16:09.763Z,4.20
2023-03-19T07:18:36.751Z,0.55
2023-03-19T07:21:04.146Z,0.98
2023-03-19T07:23:31.137Z,0.70
2023-03-19T07:25:58.849Z,0.65
2023-03-19T07:28:26.084Z,0.50
2023-03-19T07:30:53.744Z,1.45
2023-03-19T07:33:22.079Z,1.10
2023-03-19T07:35:49.297Z,0.80
2023-03-19T07:38:16.832Z,2.92
2023-03-19T07:40:54.973Z,0.65
2023-03-19T07:43:26.345Z,0.63
2023-03-19T07:45:53.580Z,1.50
2023-03-19T07:48:21.096Z,19.35
2023-03-19T07:50:51.394Z,0.63
2023-03-19T07:53:18.745Z,3.03
2023-03-19T07:55:45.883Z,36.88
2023-03-19T07:58:13.405Z,0.52
2023-03-19T08:00:40.617Z,0.70
2023-03-19T08:03:07.692Z,1.95
2023-03-19T08:05:34.694Z,6.40
2023-03-19T08:08:01.954Z,1.58
2023-03-19T08:10:29.241Z,14.82
2023-03-19T08:12:56.788Z,0.80
2023-03-19T08:15:23.913Z,1.27
2023-03-19T08:18:03.604Z,15.70
2023-03-19T08:20:31.063Z,3.65
2023-03-19T08:22:58.417Z,16.10
2023-03-19T08:25:27.222Z,1.63
2023-03-19T08:27:54.550Z,3.95
2023-03-19T08:30:21.704Z,17.02
2023-03-19T08:32:49.543Z,0.68
2023-03-19T08:35:17.101Z,0.40
2023-03-19T08:37:44.155Z,5.05
2023-03-19T08:40:12.038Z,10.30
2023-03-19T08:42:45.002Z,30.48
2023-03-19T08:45:14.153Z,37.13
2023-03-19T08:47:42.375Z,4.20
2023-03-19T08:50:10.181Z,1.85
2023-03-19T08:52:37.935Z,0.60
2023-03-19T08:55:05.666Z,0.50
2023-03-19T08:57:36.181Z,46.30
2023-03-19T09:00:06.353Z,0.50
2023-03-19T09:02:34.215Z,3.13
2023-03-19T09:05:02.265Z,0.60
2023-03-19T09:07:33.976Z,0.50
2023-03-19T09:10:02.817Z,0.77
2023-03-19T09:12:30.078Z,0.50
2023-03-19T09:14:57.350Z,2.28
2023-03-19T09:17:24.678Z,1.73
2023-03-19T09:19:51.731Z,1.27
2023-03-19T09:22:18.714Z,1.27
2023-03-19T09:24:45.962Z,0.60
2023-03-19T09:27:13.173Z,0.73
2023-03-19T09:29:43.412Z,0.82
2023-03-19T09:32:10.589Z,15.85
2023-03-19T09:34:37.823Z,0.65
2023-03-19T09:37:04.948Z,0.60
2023-03-19T09:39:32.836Z,6.18
2023-03-19T09:42:15.532Z,0.77
2023-03-19T09:44:47.300Z,1.50
2023-03-19T09:47:26.418Z,7.00
2023-03-19T09:49:59.532Z,17.67
2023-03-19T09:52:49.789Z,1.05
2023-03-19T09:55:31.864Z,2.20
2023-03-19T09:58:01.048Z,2.25
2023-03-19T10:00:32.880Z,2.15
2023-03-19T10:03:30.202Z,7.70
2023-03-19T10:06:18.350Z,19.95
2023-03-19T10:09:12.149Z,0.40
2023-03-19T10:11:59.733Z,0.98
2023-03-19T10:14:47.367Z,6.10
2023-03-19T10:17:22.409Z,1.25
2023-03-19T10:19:57.558Z,1.08
2023-03-19T10:22:36.206Z,0.30
2023-03-19T10:25:06.834Z,4.05
2023-03-19T10:27:33.883Z,9.00
2023-03-19T10:30:01.005Z,2.42
2023-03-19T10:32:44.374Z,6.25
2023-03-19T10:35:25.057Z,2.50
2023-03-19T10:37:52.382Z,0.65
2023-03-19T10:40:52.554Z,37.92
2023-03-19T10:43:26.713Z,1.67
2023-03-19T10:45:54.607Z,5.18
2023-03-19T10:48:28.139Z,3.22
2023-03-19T10:51:06.288Z,1.67
2023-03-19T10:53:38.583Z,0.57
2023-03-19T10:56:19.994Z,0.55
2023-03-19T10:58:57.779Z,0.45
2023-03-19T11:01:39.377Z,27.30
2023-03-19T11:04:19.937Z,27.25
2023-03-19T11:06:52.226Z,0.40
2023-03-19T11:09:38.752Z,0.55
2023-03-19T11:12:34.113Z,0.30
2023-03-19T11:15:07.696Z,2.83
2023-03-19T11:17:49.690Z,3.15
2023-03-19T11:20:33.910Z,0.45
2023-03-19T11:23:07.798Z,9.88
2023-03-19T11:25:42.316Z,0.30
2023-03-19T11:28:14.535Z,0.63
2023-03-19T11:31:10.994Z,0.30
2023-03-19T11:34:11.925Z,3.38
2023-03-19T11:37:02.093Z,0.30
2023-03-19T11:39:30.864Z,7.85
2023-03-19T11:42:35.172Z,19.50
2023-03-19T11:45:26.198Z,2.72
2023-03-19T11:48:08.493Z,4.47
2023-03-19T11:50:51.424Z,0.40
2023-03-19T11:53:39.943Z,3.53
2023-03-19T11:56:30.048Z,1.23
2023-03-19T11:59:10.295Z,0.30
2023-03-19T12:01:58.725Z,0.50
2023-03-19T12:04:44.013Z,0.40
2023-03-19T12:10:26.269Z,4.55
2023-03-19T12:13:45.841Z,4.63
2023-03-19T12:16:21.599Z,0.40
2023-03-19T12:18:56.739Z,5.10
2023-03-19T12:21:44.949Z,1.95
2023-03-19T12:24:28.703Z,0.60
2023-03-19T12:27:27.621Z,1.80
2023-03-19T12:30:15.976Z,1.27
2023-03-19T12:32:54.316Z,18.05
2023-03-19T12:35:29.945Z,1.05
2023-03-19T12:38:05.707Z,0.40
2023-03-19T12:40:38.837Z,0.40
2023-03-19T12:43:30.707Z,1.10
2023-03-19T12:46:38.523Z,6.32
2023-03-19T12:49:15.692Z,5.38
2023-03-19T12:51:49.776Z,4.57
2023-03-19T12:54:42.079Z,0.47
2023-03-19T12:57:18.664Z,1.20
2023-03-19T12:59:45.770Z,1.45
2023-03-19T13:02:57.819Z,1.48
2023-03-19T13:05:53.198Z,0.70
2023-03-19T13:08:40.375Z,1.23
2023-03-19T13:11:26.795Z,5.47
2023-03-19T13:14:12.209Z,0.80
2023-03-19T13:16:46.533Z,2.13
2023-03-19T13:19:30.467Z,0.40
2023-03-19T13:22:03.305Z,0.45
2023-03-19T13:24:38.883Z,1.15
2023-03-19T13:27:11.128Z,0.50
2023-03-19T13:29:52.338Z,1.70
2023-03-19T13:32:36.081Z,0.65
2023-03-19T13:35:24.505Z,0.50
2023-03-19T13:37:59.480Z,1.33
2023-03-19T13:43:30.174Z,5.00
2023-03-19T13:46:12.550Z,1.77
2023-03-19T13:48:51.138Z,2.00
2023-03-19T13:51:21.935Z,1.40
2023-03-19T13:54:01.521Z,0.40
2023-03-19T13:56:30.603Z,1.02
2023-03-19T13:59:25.449Z,1.67
2023-03-19T14:01:52.880Z,0.77
2023-03-19T14:04:21.528Z,2.72
2023-03-19T14:06:56.254Z,5.00
2023-03-19T14:09:43.602Z,1.17
2023-03-19T14:12:20.399Z,1.50
2023-03-19T14:14:57.403Z,10.63
2023-03-19T14:17:51.668Z,12.75
2023-03-19T14:20:24.013Z,1.48
2023-03-19T14:22:58.220Z,0.83
2023-03-19T14:25:57.148Z,0.93
2023-03-19T14:28:52.838Z,0.60
2023-03-19T14:31:32.040Z,0.75
2023-03-19T14:34:11.556Z,3.85
2023-03-19T14:36:44.764Z,6.85
2023-03-19T14:39:24.607Z,2.80
2023-03-19T14:42:01.567Z,4.47
2023-03-19T14:45:18.463Z,1.02
2023-03-19T14:48:12.741Z,5.85
2023-03-19T14:51:14.064Z,2.10
2023-03-19T14:53:52.333Z,3.28
2023-03-19T14:56:25.712Z,1.13
2023-03-19T14:58:57.802Z,4.53
2023-03-19T15:01:29.746Z,6.18
2023-03-19T15:04:00.968Z,5.50
2023-03-19T15:06:33.971Z,13.20
2023-03-19T15:09:02.768Z,5.10
2023-03-19T15:11:48.349Z,15.18
2023-03-19T15:14:24.366Z,23.42
2023-03-19T15:17:22.388Z,9.57
2023-03-19T15:19:50.258Z,1.75
2023-03-19T15:22:21.683Z,2.80
2023-03-19T15:24:48.979Z,3.08
2023-03-19T15:27:27.400Z,1.52
2023-03-19T15:30:02.528Z,1.10
2023-03-19T15:33:09.021Z,1.50
2023-03-19T15:35:33.303Z,1.15
2023-03-19T15:38:12.518Z,2.30
2023-03-19T15:40:41.677Z,2.17
2023-03-19T15:43:13.119Z,2.13
2023-03-19T15:45:46.429Z,2.17
2023-03-19T15:48:16.827Z,1.75
2023-03-19T15:50:46.911Z,10.40
2023-03-19T15:53:19.560Z,16.63
2023-03-19T15:55:50.278Z,60.95
2023-03-19T15:58:22.490Z,5.80
2023-03-19T16:00:54.887Z,10.80
2023-03-19T16:03:38.490Z,9.20
2023-03-19T16:06:08.365Z,7.55
2023-03-19T16:08:35.642Z,16.80
2023-03-19T16:11:28.545Z,32.53
2023-03-19T16:14:02.054Z,43.58
2023-03-19T16:16:32.964Z,8.85
2023-03-19T16:18:59.973Z,5.95
2023-03-19T16:21:41.627Z,6.97
2023-03-19T16:24:08.593Z,14.18
2023-03-19T16:26:44.651Z,12.20
2023-03-19T16:29:25.697Z,1.90
2023-03-19T16:31:58.765Z,30.25
2023-03-19T16:34:36.274Z,31.95
2023-03-19T16:37:26.322Z,18.38
2023-03-19T16:39:59.064Z,5.05
2023-03-19T16:42:36.977Z,20.90
2023-03-19T16:45:18.923Z,3.85
2023-03-19T16:47:51.458Z,2.92
2023-03-19T16:50:21.578Z,6.70
2023-03-19T16:52:49.731Z,24.40
2023-03-19T16:55:28.863Z,11.40
2023-03-19T16:58:16.506Z,7.70
2023-03-19T17:00:44.963Z,4.10
2023-03-19T17:03:17.579Z,22.48
2023-03-19T17:05:46.800Z,1.80
2023-03-19T17:08:14.462Z,2.15
2023-03-19T17:10:46.017Z,16.92
2023-03-19T17:13:23.462Z,34.55
2023-03-19T17:15:51.623Z,27.83
2023-03-19T17:18:21.202Z,19.42
2023-03-19T17:20:52.745Z,8.77
2023-03-19T17:23:20.147Z,12.88
2023-03-19T17:25:47.517Z,14.15
2023-03-19T17:28:14.630Z,6.82
2023-03-19T17:30:42.034Z,1.92
2023-03-19T17:33:23.250Z,6.25
2023-03-19T17:35:51.489Z,8.10
2023-03-19T17:38:19.465Z,4.45
2023-03-19T17:40:47.818Z,3.58
2023-03-19T17:43:15.619Z,2.72
2023-03-19T17:45:46.807Z,2.92
2023-03-19T17:48:24.158Z,8.25
2023-03-19T17:50:51.820Z,7.47
2023-03-19T17:53:19.112Z,2.00
2023-03-19T17:55:47.039Z,4.13
2023-03-19T17:58:20.191Z,16.65
2023-03-19T18:00:49.677Z,20.17
2023-03-19T18:03:19.847Z,22.17
2023-03-19T18:05:47.174Z,26.10
2023-03-19T18:08:16.946Z,10.10
2023-03-19T18:10:44.131Z,15.18
2023-03-19T18:13:12.130Z,10.23
2023-03-19T18:15:41.690Z,5.07
2023-03-19T18:18:15.938Z,26.75
2023-03-19T18:20:43.245Z,2.53
2023-03-19T18:23:11.983Z,4.13
2023-03-19T18:25:39.560Z,10.27
2023-03-19T18:28:06.811Z,3.28
2023-03-19T18:30:36.178Z,2.15
2023-03-19T18:33:07.515Z,61.40
2023-03-19T18:35:39.150Z,92.70
2023-03-19T18:38:14.401Z,154.52
2023-03-19T18:40:41.613Z,133.70
2023-03-19T18:43:10.766Z,92.43
2023-03-19T18:45:40.050Z,97.47
2023-03-19T18:48:16.842Z,33.42
2023-03-19T18:50:44.144Z,35.80
2023-03-19T18:53:11.607Z,26.90
2023-03-19T18:55:38.960Z,24.30
2023-03-19T18:58:06.679Z,12.10
2023-03-19T19:00:36.186Z,21.02
2023-03-19T19:03:05.433Z,14.82
2023-03-19T19:05:33.684Z,12.27
2023-03-19T19:08:02.833Z,9.90
2023-03-19T19:10:36.927Z,13.30
2023-03-19T19:13:04.333Z,29.40
2023-03-19T19:15:36.645Z,24.33
2023-03-19T19:18:15.217Z,10.32
2023-03-19T19:20:42.468Z,3.05
2023-03-19T19:23:10.739Z,2.65
2023-03-19T19:25:38.774Z,4.70
2023-03-19T19:28:21.294Z,5.90
2023-03-19T19:30:49.788Z,2.25
2023-03-19T19:33:36.828Z,1.58
2023-03-19T19:36:04.660Z,19.58
2023-03-19T19:38:31.863Z,2.42
2023-03-19T19:41:00.657Z,13.18
2023-03-19T19:43:31.226Z,11.15
2023-03-19T19:45:59.136Z,1.50
2023-03-19T19:48:28.809Z,3.70
2023-03-19T19:51:04.277Z,9.07
2023-03-19T19:53:31.480Z,3.15
2023-03-19T19:55:58.697Z,1.63
2023-03-19T19:58:31.166Z,5.07
2023-03-19T20:01:03.740Z,1.52
2023-03-19T20:03:34.137Z,4.47
2023-03-19T20:06:02.108Z,1.20
2023-03-19T20:08:30.095Z,14.35
2023-03-19T20:10:57.624Z,7.05
2023-03-19T20:13:38.044Z,8.25
2023-03-19T20:16:06.085Z,9.10
2023-03-19T20:18:35.946Z,3.70
2023-03-19T20:21:04.398Z,2.33
2023-03-19T20:23:32.225Z,20.05
2023-03-19T20:25:59.883Z,9.35
2023-03-19T20:28:34.361Z,15.95
2023-03-19T20:31:03.979Z,12.40
2023-03-19T20:33:31.744Z,36.50
2023-03-19T20:35:59.088Z,80.80
2023-03-19T20:38:27.633Z,51.03
2023-03-19T20:40:57.536Z,37.67
2023-03-19T20:43:35.983Z,18.00
2023-03-19T20:46:06.037Z,35.55
2023-03-19T20:48:34.423Z,17.60
2023-03-19T20:51:02.580Z,31.65
2023-03-19T20:53:30.034Z,30.85
2023-03-19T20:55:57.671Z,8.75
2023-03-19T20:58:35.027Z,6.97
2023-03-19T21:01:03.310Z,13.45
2023-03-19T21:03:31.941Z,10.38
2023-03-19T21:06:02.263Z,4.78
2023-03-19T21:08:37.893Z,6.50
2023-03-19T21:11:05.734Z,14.10
2023-03-19T21:13:32.820Z,5.60
2023-03-19T21:16:00.296Z,10.80
2023-03-19T21:18:27.572Z,9.30
2023-03-19T21:20:57.207Z,13.73
2023-03-19T21:23:37.393Z,9.85
2023-03-19T21:26:15.417Z,6.80
2023-03-19T21:28:43.721Z,2.83
2023-03-19T21:31:20.768Z,3.35
2023-03-19T21:33:49.840Z,4.97
2023-03-19T21:36:17.632Z,9.65
2023-03-19T21:38:45.062Z,1.42
2023-03-19T21:41:26.552Z,2.58
2023-03-19T21:43:57.531Z,1.48
2023-03-19T21:46:27.834Z,13.77
2023-03-19T21:48:56.470Z,17.55
2023-03-19T21:51:25.376Z,1.75
2023-03-19T21:53:52.706Z,13.35
2023-03-19T21:56:33.523Z,4.93
2023-03-19T21:59:04.157Z,2.67
2023-03-19T22:01:31.375Z,6.18
2023-03-19T22:03:58.883Z,1.70
2023-03-19T22:06:26.099Z,0.85
2023-03-19T22:08:56.385Z,10.15
2023-03-19T22:11:30.571Z,1.15
2023-03-19T22:14:34.909Z,2.25
2023-03-19T22:17:02.102Z,15.43
2023-03-19T22:19:29.378Z,26.33
2023-03-19T22:21:56.510Z,4.47
2023-03-19T22:24:23.680Z,1.63
2023-03-19T22:26:56.686Z,3.53
2023-03-19T22:29:25.784Z,11.75
2023-03-19T22:31:54.603Z,1.27
2023-03-19T22:34:25.028Z,10.40
2023-03-19T22:36:52.172Z,5.40
2023-03-19T22:39:19.407Z,6.03
2023-03-19T22:41:48.505Z,9.93
2023-03-19T22:44:31.353Z,1.05
2023-03-19T22:47:00.971Z,0.75
2023-03-19T22:49:30.120Z,11.30
2023-03-19T22:51:58.423Z,1.30
2023-03-19T22:54:26.142Z,1.95
2023-03-19T22:56:53.344Z,9.57
2023-03-19T22:59:20.572Z,11.48
2023-03-19T23:01:48.163Z,17.50
2023-03-19T23:04:20.954Z,10.18
2023-03-19T23:06:48.757Z,11.48
2023-03-19T23:09:19.234Z,2.92
2023-03-19T23:11:48.392Z,3.85
2023-03-19T23:14:28.517Z,9.48
2023-03-19T23:17:02.133Z,2.25
2023-03-19T23:19:35.077Z,8.80
2023-03-19T23:22:04.948Z,1.90
2023-03-19T23:24:32.491Z,8.48
2023-03-19T23:27:01.107Z,25.27
2023-03-19T23:29:39.932Z,8.23
2023-03-19T23:32:08.323Z,7.78
2023-03-19T23:34:45.793Z,21.48
2023-03-19T23:37:22.671Z,8.25
2023-03-19T23:39:50.019Z,22.13
2023-03-19T23:42:27.780Z,34.67
2023-03-19T23:44:58.153Z,4.53
2023-03-19T23:47:25.597Z,16.08
2023-03-19T23:49:52.765Z,16.33
2023-03-19T23:52:19.671Z,6.03
2023-03-19T23:54:46.840Z,3.08
2023-03-19T23:57:15.879Z,5.85
2023-03-19T23:59:45.472Z,2.35
